logo
Search for airport 
image banner adimage banner adimage banner ad
image banner ad

ED0284 - Laupheim-Ingerkingen

Located in , Germany

ICAO - , IATA -

Data provided by Airmate  

General information

Coordinates: N48°12'57" E9°45'26"
Elevation is 1780 feet MSL.
 
View others Airports in Baden-Württemberg

Operational data

Special qualification required
Current time UTC:
Current local time:
Weather at : ETHL - Laupheim ( 11 km )
METAR: ETHL 171220Z 18003KT 9999 FEW045 SCT060 BKN075 22/11 Q1022 BLU BLU+ TEMPO BLU
TAF: TAF ETHL 171007Z 1711/1720 02005KT 9999 NSW SCT040 SCT070
View NOTAMs / SUP AIP / TFR affecting this airport [VIEW]
Communications frequencies: [VIEW]

Runways:

Airport contact information

Address: Germany

Satellite view of ED0284